sensor_id;sensor_type;location;lat;lon;timestamp;P1;durP1;ratioP1;P2;durP2;ratioP2
46931;SDS011;32670;51.464;11.964;2024-03-23T00:55:13;3.50;;;2.40;;
46931;SDS011;32670;51.464;11.964;2024-03-23T00:57:39;3.27;;;2.60;;
46931;SDS011;32670;51.464;11.964;2024-03-23T01:00:04;3.77;;;2.43;;
46931;SDS011;32670;51.464;11.964;2024-03-23T01:02:31;5.93;;;2.50;;
46931;SDS011;32670;51.464;11.964;2024-03-23T01:04:57;3.80;;;2.10;;
46931;SDS011;32670;51.464;11.964;2024-03-23T01:07:22;2.93;;;2.60;;
46931;SDS011;32670;51.464;11.964;2024-03-23T01:09:48;2.97;;;2.27;;
46931;SDS011;32670;51.464;11.964;2024-03-23T01:12:13;2.47;;;2.20;;
46931;SDS011;32670;51.464;11.964;2024-03-23T01:14:39;2.30;;;2.10;;
46931;SDS011;32670;51.464;11.964;2024-03-23T01:17:04;2.97;;;2.40;;
46931;SDS011;32670;51.464;11.964;2024-03-23T01:19:30;4.17;;;2.40;;
46931;SDS011;32670;51.464;11.964;2024-03-23T01:21:55;2.87;;;2.40;;
46931;SDS011;32670;51.464;11.964;2024-03-23T01:24:20;3.13;;;2.13;;
46931;SDS011;32670;51.464;11.964;2024-03-23T01:26:46;6.43;;;2.60;;
46931;SDS011;32670;51.464;11.964;2024-03-23T01:29:11;3.33;;;2.23;;
46931;SDS011;32670;51.464;11.964;2024-03-23T01:31:37;3.57;;;2.30;;
46931;SDS011;32670;51.464;11.964;2024-03-23T01:34:02;3.90;;;2.47;;
46931;SDS011;32670;51.464;11.964;2024-03-23T01:36:28;2.97;;;2.50;;
46931;SDS011;32670;51.464;11.964;2024-03-23T01:38:53;2.90;;;2.20;;
46931;SDS011;32670;51.464;11.964;2024-03-23T01:41:19;3.37;;;2.43;;
46931;SDS011;32670;51.464;11.964;2024-03-23T01:43:45;2.00;;;1.90;;
46931;SDS011;32670;51.464;11.964;2024-03-23T01:46:10;2.80;;;2.27;;
46931;SDS011;32670;51.464;11.964;2024-03-23T01:48:36;3.27;;;2.07;;
46931;SDS011;32670;51.464;11.964;2024-03-23T01:51:01;2.93;;;2.13;;
46931;SDS011;32670;51.464;11.964;2024-03-23T01:53:28;4.07;;;2.10;;
46931;SDS011;32670;51.464;11.964;2024-03-23T01:55:54;2.20;;;2.00;;
46931;SDS011;32670;51.464;11.964;2024-03-23T01:58:21;2.10;;;1.90;;
46931;SDS011;32670;51.464;11.964;2024-03-23T02:00:47;3.07;;;2.13;;
46931;SDS011;32670;51.464;11.964;2024-03-23T02:03:22;3.13;;;1.93;;
46931;SDS011;32670;51.464;11.964;2024-03-23T02:05:49;2.13;;;1.93;;
46931;SDS011;32670;51.464;11.964;2024-03-23T02:08:16;2.00;;;1.90;;
46931;SDS011;32670;51.464;11.964;2024-03-23T02:10:43;2.30;;;2.10;;
46931;SDS011;32670;51.464;11.964;2024-03-23T02:13:08;4.63;;;2.10;;
46931;SDS011;32670;51.464;11.964;2024-03-23T02:15:34;2.90;;;2.00;;
46931;SDS011;32670;51.464;11.964;2024-03-23T02:18:00;2.13;;;1.93;;
46931;SDS011;32670;51.464;11.964;2024-03-23T02:20:25;2.10;;;1.90;;
46931;SDS011;32670;51.464;11.964;2024-03-23T02:22:52;3.60;;;2.37;;
46931;SDS011;32670;51.464;11.964;2024-03-23T02:25:20;3.97;;;2.20;;
46931;SDS011;32670;51.464;11.964;2024-03-23T02:27:46;3.23;;;2.30;;
46931;SDS011;32670;51.464;11.964;2024-03-23T02:30:11;2.30;;;1.90;;
46931;SDS011;32670;51.464;11.964;2024-03-23T02:32:37;2.70;;;1.90;;
46931;SDS011;32670;51.464;11.964;2024-03-23T02:35:02;2.57;;;1.90;;
46931;SDS011;32670;51.464;11.964;2024-03-23T02:37:28;2.57;;;2.10;;
46931;SDS011;32670;51.464;11.964;2024-03-23T02:39:53;2.17;;;1.90;;
46931;SDS011;32670;51.464;11.964;2024-03-23T02:42:19;2.60;;;1.87;;
46931;SDS011;32670;51.464;11.964;2024-03-23T02:44:44;2.23;;;1.90;;
46931;SDS011;32670;51.464;11.964;2024-03-23T02:47:10;4.27;;;2.03;;
46931;SDS011;32670;51.464;11.964;2024-03-23T02:49:36;3.17;;;2.00;;
46931;SDS011;32670;51.464;11.964;2024-03-23T02:52:02;2.80;;;2.00;;
46931;SDS011;32670;51.464;11.964;2024-03-23T02:54:27;2.17;;;1.97;;
46931;SDS011;32670;51.464;11.964;2024-03-23T02:56:53;2.23;;;1.90;;
46931;SDS011;32670;51.464;11.964;2024-03-23T02:59:18;2.83;;;1.97;;
46931;SDS011;32670;51.464;11.964;2024-03-23T03:01:44;3.07;;;1.80;;
46931;SDS011;32670;51.464;11.964;2024-03-23T03:04:09;2.47;;;1.80;;
46931;SDS011;32670;51.464;11.964;2024-03-23T03:06:35;2.00;;;1.77;;
46931;SDS011;32670;51.464;11.964;2024-03-23T03:09:00;2.57;;;2.03;;
46931;SDS011;32670;51.464;11.964;2024-03-23T03:11:26;2.33;;;2.13;;
46931;SDS011;32670;51.464;11.964;2024-03-23T03:13:51;2.13;;;1.87;;
46931;SDS011;32670;51.464;11.964;2024-03-23T03:16:17;2.23;;;1.83;;
46931;SDS011;32670;51.464;11.964;2024-03-23T03:18:42;3.13;;;1.80;;
46931;SDS011;32670;51.464;11.964;2024-03-23T03:21:08;4.03;;;3.10;;
46931;SDS011;32670;51.464;11.964;2024-03-23T03:23:38;3.93;;;3.57;;
46931;SDS011;32670;51.464;11.964;2024-03-23T03:26:04;4.00;;;3.03;;
46931;SDS011;32670;51.464;11.964;2024-03-23T03:28:31;4.37;;;2.53;;
46931;SDS011;32670;51.464;11.964;2024-03-23T03:30:57;2.93;;;2.60;;
46931;SDS011;32670;51.464;11.964;2024-03-23T03:33:23;5.23;;;2.97;;
46931;SDS011;32670;51.464;11.964;2024-03-23T03:35:49;3.97;;;2.77;;
46931;SDS011;32670;51.464;11.964;2024-03-23T03:38:16;3.07;;;2.57;;
46931;SDS011;32670;51.464;11.964;2024-03-23T03:40:42;13.37;;;2.73;;
46931;SDS011;32670;51.464;11.964;2024-03-23T03:43:07;3.07;;;2.60;;
46931;SDS011;32670;51.464;11.964;2024-03-23T03:45:33;3.90;;;2.83;;
46931;SDS011;32670;51.464;11.964;2024-03-23T03:47:58;3.30;;;2.80;;
46931;SDS011;32670;51.464;11.964;2024-03-23T03:50:24;4.43;;;2.70;;
46931;SDS011;32670;51.464;11.964;2024-03-23T03:52:50;3.63;;;2.50;;
46931;SDS011;32670;51.464;11.964;2024-03-23T03:55:15;3.40;;;2.60;;
46931;SDS011;32670;51.464;11.964;2024-03-23T03:57:41;3.00;;;2.63;;
46931;SDS011;32670;51.464;11.964;2024-03-23T04:00:07;2.83;;;2.40;;
46931;SDS011;32670;51.464;11.964;2024-03-23T04:02:36;2.67;;;2.47;;
46931;SDS011;32670;51.464;11.964;2024-03-23T04:05:02;7.13;;;2.53;;
46931;SDS011;32670;51.464;11.964;2024-03-23T04:07:28;2.80;;;2.27;;
46931;SDS011;32670;51.464;11.964;2024-03-23T04:09:54;2.67;;;2.47;;
46931;SDS011;32670;51.464;11.964;2024-03-23T04:12:19;3.07;;;2.50;;
46931;SDS011;32670;51.464;11.964;2024-03-23T04:14:45;3.23;;;2.57;;
46931;SDS011;32670;51.464;11.964;2024-03-23T04:17:10;8.27;;;2.73;;
46931;SDS011;32670;51.464;11.964;2024-03-23T04:19:36;4.63;;;2.73;;
46931;SDS011;32670;51.464;11.964;2024-03-23T04:22:02;2.73;;;2.27;;
46931;SDS011;32670;51.464;11.964;2024-03-23T04:24:28;3.23;;;2.50;;
46931;SDS011;32670;51.464;11.964;2024-03-23T04:26:54;3.93;;;2.53;;
46931;SDS011;32670;51.464;11.964;2024-03-23T04:29:19;3.00;;;2.70;;
46931;SDS011;32670;51.464;11.964;2024-03-23T04:31:45;2.90;;;2.50;;
46931;SDS011;32670;51.464;11.964;2024-03-23T04:34:10;5.57;;;2.30;;
46931;SDS011;32670;51.464;11.964;2024-03-23T04:36:36;3.13;;;2.53;;
46931;SDS011;32670;51.464;11.964;2024-03-23T04:39:02;3.60;;;2.90;;
46931;SDS011;32670;51.464;11.964;2024-03-23T04:41:27;5.83;;;3.20;;
46931;SDS011;32670;51.464;11.964;2024-03-23T04:43:53;3.77;;;2.90;;
46931;SDS011;32670;51.464;11.964;2024-03-23T04:46:18;6.27;;;3.17;;
46931;SDS011;32670;51.464;11.964;2024-03-23T04:48:45;4.70;;;2.73;;
46931;SDS011;32670;51.464;11.964;2024-03-23T04:51:11;4.67;;;2.97;;
46931;SDS011;32670;51.464;11.964;2024-03-23T04:53:46;4.07;;;2.73;;
46931;SDS011;32670;51.464;11.964;2024-03-23T04:56:12;5.30;;;3.07;;
46931;SDS011;32670;51.464;11.964;2024-03-23T04:58:38;5.93;;;2.77;;
46931;SDS011;32670;51.464;11.964;2024-03-23T05:01:04;2.97;;;2.53;;
46931;SDS011;32670;51.464;11.964;2024-03-23T05:03:29;4.80;;;2.77;;
46931;SDS011;32670;51.464;11.964;2024-03-23T05:05:55;4.43;;;2.87;;
46931;SDS011;32670;51.464;11.964;2024-03-23T05:08:20;4.43;;;3.00;;
46931;SDS011;32670;51.464;11.964;2024-03-23T05:10:46;4.03;;;2.83;;
46931;SDS011;32670;51.464;11.964;2024-03-23T05:13:11;4.93;;;2.83;;
46931;SDS011;32670;51.464;11.964;2024-03-23T05:15:37;4.03;;;3.03;;
46931;SDS011;32670;51.464;11.964;2024-03-23T05:18:02;3.33;;;2.63;;
46931;SDS011;32670;51.464;11.964;2024-03-23T05:20:30;2.70;;;2.50;;
46931;SDS011;32670;51.464;11.964;2024-03-23T05:22:55;6.80;;;2.50;;
46931;SDS011;32670;51.464;11.964;2024-03-23T05:25:21;3.47;;;3.00;;
46931;SDS011;32670;51.464;11.964;2024-03-23T05:27:47;5.40;;;2.37;;
46931;SDS011;32670;51.464;11.964;2024-03-23T05:30:13;4.80;;;2.63;;
46931;SDS011;32670;51.464;11.964;2024-03-23T05:32:39;3.97;;;2.33;;
46931;SDS011;32670;51.464;11.964;2024-03-23T05:35:08;5.20;;;2.63;;
46931;SDS011;32670;51.464;11.964;2024-03-23T05:37:34;2.60;;;2.40;;
46931;SDS011;32670;51.464;11.964;2024-03-23T05:40:00;2.50;;;2.30;;
46931;SDS011;32670;51.464;11.964;2024-03-23T05:42:26;2.33;;;2.13;;
46931;SDS011;32670;51.464;11.964;2024-03-23T05:44:51;3.07;;;2.40;;
46931;SDS011;32670;51.464;11.964;2024-03-23T05:47:17;3.43;;;2.70;;
46931;SDS011;32670;51.464;11.964;2024-03-23T05:49:43;3.47;;;2.60;;
46931;SDS011;32670;51.464;11.964;2024-03-23T05:52:08;3.27;;;2.20;;
46931;SDS011;32670;51.464;11.964;2024-03-23T05:54:34;2.43;;;2.23;;
46931;SDS011;32670;51.464;11.964;2024-03-23T05:57:00;3.33;;;2.30;;
46931;SDS011;32670;51.464;11.964;2024-03-23T05:59:26;4.00;;;2.43;;
46931;SDS011;32670;51.464;11.964;2024-03-23T06:01:52;2.83;;;2.53;;
46931;SDS011;32670;51.464;11.964;2024-03-23T06:04:18;2.70;;;2.50;;
46931;SDS011;32670;51.464;11.964;2024-03-23T06:06:44;5.60;;;2.60;;
46931;SDS011;32670;51.464;11.964;2024-03-23T06:09:09;6.33;;;2.67;;
46931;SDS011;32670;51.464;11.964;2024-03-23T06:11:34;4.70;;;2.70;;
46931;SDS011;32670;51.464;11.964;2024-03-23T06:14:00;5.00;;;2.70;;
46931;SDS011;32670;51.464;11.964;2024-03-23T06:16:25;6.10;;;2.80;;
46931;SDS011;32670;51.464;11.964;2024-03-23T06:18:52;4.10;;;2.90;;
46931;SDS011;32670;51.464;11.964;2024-03-23T06:21:17;6.17;;;3.40;;
46931;SDS011;32670;51.464;11.964;2024-03-23T06:23:43;7.57;;;3.63;;
46931;SDS011;32670;51.464;11.964;2024-03-23T06:26:15;4.90;;;3.07;;
46931;SDS011;32670;51.464;11.964;2024-03-23T06:28:45;3.60;;;2.97;;
46931;SDS011;32670;51.464;11.964;2024-03-23T06:31:11;5.80;;;3.23;;
46931;SDS011;32670;51.464;11.964;2024-03-23T06:33:37;10.40;;;3.30;;
46931;SDS011;32670;51.464;11.964;2024-03-23T06:36:05;7.90;;;3.47;;
46931;SDS011;32670;51.464;11.964;2024-03-23T06:38:33;7.50;;;3.27;;
46931;SDS011;32670;51.464;11.964;2024-03-23T06:41:00;9.67;;;2.70;;
46931;SDS011;32670;51.464;11.964;2024-03-23T06:43:27;4.40;;;2.40;;
46931;SDS011;32670;51.464;11.964;2024-03-23T06:45:53;5.13;;;2.20;;
46931;SDS011;32670;51.464;11.964;2024-03-23T06:48:19;2.30;;;1.80;;
46931;SDS011;32670;51.464;11.964;2024-03-23T06:50:45;2.90;;;1.60;;
46931;SDS011;32670;51.464;11.964;2024-03-23T06:53:11;2.03;;;1.33;;
46931;SDS011;32670;51.464;11.964;2024-03-23T06:55:37;2.10;;;1.30;;
46931;SDS011;32670;51.464;11.964;2024-03-23T06:58:03;2.23;;;1.23;;
46931;SDS011;32670;51.464;11.964;2024-03-23T07:00:29;2.43;;;1.30;;
46931;SDS011;32670;51.464;11.964;2024-03-23T07:02:54;2.00;;;1.20;;
46931;SDS011;32670;51.464;11.964;2024-03-23T07:05:20;1.37;;;1.10;;
46931;SDS011;32670;51.464;11.964;2024-03-23T07:07:45;1.90;;;1.20;;
46931;SDS011;32670;51.464;11.964;2024-03-23T07:10:11;1.50;;;1.10;;
46931;SDS011;32670;51.464;11.964;2024-03-23T07:12:36;1.73;;;1.20;;
46931;SDS011;32670;51.464;11.964;2024-03-23T07:15:02;2.17;;;1.13;;
46931;SDS011;32670;51.464;11.964;2024-03-23T07:17:28;2.00;;;1.10;;
46931;SDS011;32670;51.464;11.964;2024-03-23T07:19:53;1.60;;;0.90;;
46931;SDS011;32670;51.464;11.964;2024-03-23T07:22:19;2.47;;;1.10;;
46931;SDS011;32670;51.464;11.964;2024-03-23T07:24:44;2.37;;;1.10;;
46931;SDS011;32670;51.464;11.964;2024-03-23T07:27:10;3.87;;;1.00;;
46931;SDS011;32670;51.464;11.964;2024-03-23T07:29:35;1.27;;;0.90;;
46931;SDS011;32670;51.464;11.964;2024-03-23T07:32:01;2.40;;;1.20;;
46931;SDS011;32670;51.464;11.964;2024-03-23T07:34:27;3.63;;;1.33;;
46931;SDS011;32670;51.464;11.964;2024-03-23T07:36:52;7.17;;;1.20;;
46931;SDS011;32670;51.464;11.964;2024-03-23T07:39:18;4.50;;;1.20;;
46931;SDS011;32670;51.464;11.964;2024-03-23T07:41:46;1.87;;;1.00;;
46931;SDS011;32670;51.464;11.964;2024-03-23T07:44:12;6.47;;;1.20;;
46931;SDS011;32670;51.464;11.964;2024-03-23T07:46:37;2.53;;;0.83;;
46931;SDS011;32670;51.464;11.964;2024-03-23T07:49:06;2.30;;;0.90;;
46931;SDS011;32670;51.464;11.964;2024-03-23T07:51:31;2.53;;;0.90;;
46931;SDS011;32670;51.464;11.964;2024-03-23T07:53:57;1.37;;;0.90;;
46931;SDS011;32670;51.464;11.964;2024-03-23T07:56:23;0.77;;;0.70;;
46931;SDS011;32670;51.464;11.964;2024-03-23T07:58:49;1.37;;;0.80;;
46931;SDS011;32670;51.464;11.964;2024-03-23T08:01:15;2.87;;;1.10;;
46931;SDS011;32670;51.464;11.964;2024-03-23T08:03:42;1.80;;;0.90;;
46931;SDS011;32670;51.464;11.964;2024-03-23T08:06:12;1.53;;;0.80;;
46931;SDS011;32670;51.464;11.964;2024-03-23T08:08:41;2.00;;;0.90;;
46931;SDS011;32670;51.464;11.964;2024-03-23T08:11:07;1.53;;;1.03;;
46931;SDS011;32670;51.464;11.964;2024-03-23T08:13:33;0.70;;;0.67;;
46931;SDS011;32670;51.464;11.964;2024-03-23T08:16:00;1.20;;;0.90;;
46931;SDS011;32670;51.464;11.964;2024-03-23T08:18:26;1.17;;;0.83;;
46931;SDS011;32670;51.464;11.964;2024-03-23T08:21:02;1.80;;;0.87;;
46931;SDS011;32670;51.464;11.964;2024-03-23T08:23:29;1.67;;;0.97;;
46931;SDS011;32670;51.464;11.964;2024-03-23T08:26:05;1.87;;;0.80;;
46931;SDS011;32670;51.464;11.964;2024-03-23T08:28:32;1.13;;;0.80;;
46931;SDS011;32670;51.464;11.964;2024-03-23T08:31:00;2.10;;;0.77;;
46931;SDS011;32670;51.464;11.964;2024-03-23T08:33:28;1.50;;;0.90;;
46931;SDS011;32670;51.464;11.964;2024-03-23T08:35:54;2.13;;;0.83;;
46931;SDS011;32670;51.464;11.964;2024-03-23T08:38:21;3.00;;;1.00;;
46931;SDS011;32670;51.464;11.964;2024-03-23T08:40:47;1.43;;;1.00;;
46931;SDS011;32670;51.464;11.964;2024-03-23T08:43:12;1.20;;;0.80;;
46931;SDS011;32670;51.464;11.964;2024-03-23T08:45:38;1.40;;;0.80;;
46931;SDS011;32670;51.464;11.964;2024-03-23T08:48:03;1.33;;;0.80;;
46931;SDS011;32670;51.464;11.964;2024-03-23T08:50:29;1.30;;;0.80;;
46931;SDS011;32670;51.464;11.964;2024-03-23T08:52:55;0.73;;;0.63;;
46931;SDS011;32670;51.464;11.964;2024-03-23T08:55:20;0.90;;;0.80;;
46931;SDS011;32670;51.464;11.964;2024-03-23T08:57:45;1.57;;;0.70;;
46931;SDS011;32670;51.464;11.964;2024-03-23T09:00:11;0.83;;;0.63;;
46931;SDS011;32670;51.464;11.964;2024-03-23T09:02:37;1.03;;;0.70;;
46931;SDS011;32670;51.464;11.964;2024-03-23T09:05:03;1.20;;;0.77;;
46931;SDS011;32670;51.464;11.964;2024-03-23T09:07:31;1.50;;;0.80;;
46931;SDS011;32670;51.464;11.964;2024-03-23T09:09:57;0.90;;;0.70;;
46931;SDS011;32670;51.464;11.964;2024-03-23T09:12:23;1.43;;;0.70;;
46931;SDS011;32670;51.464;11.964;2024-03-23T09:14:49;1.30;;;0.80;;
46931;SDS011;32670;51.464;11.964;2024-03-23T09:17:15;0.87;;;0.60;;
46931;SDS011;32670;51.464;11.964;2024-03-23T09:19:40;1.93;;;0.90;;
46931;SDS011;32670;51.464;11.964;2024-03-23T09:22:06;2.77;;;0.67;;
46931;SDS011;32670;51.464;11.964;2024-03-23T09:24:31;1.23;;;0.50;;
46931;SDS011;32670;51.464;11.964;2024-03-23T09:26:57;0.80;;;0.57;;
46931;SDS011;32670;51.464;11.964;2024-03-23T09:29:22;0.90;;;0.70;;
46931;SDS011;32670;51.464;11.964;2024-03-23T09:31:48;0.50;;;0.50;;
46931;SDS011;32670;51.464;11.964;2024-03-23T09:34:13;1.00;;;0.67;;
46931;SDS011;32670;51.464;11.964;2024-03-23T09:36:39;0.80;;;0.50;;
46931;SDS011;32670;51.464;11.964;2024-03-23T09:39:04;0.57;;;0.47;;
46931;SDS011;32670;51.464;11.964;2024-03-23T09:41:31;0.73;;;0.50;;
46931;SDS011;32670;51.464;11.964;2024-03-23T09:43:56;0.73;;;0.50;;
46931;SDS011;32670;51.464;11.964;2024-03-23T09:46:22;0.60;;;0.60;;
46931;SDS011;32670;51.464;11.964;2024-03-23T09:48:48;1.03;;;0.67;;
46931;SDS011;32670;51.464;11.964;2024-03-23T09:51:13;0.43;;;0.43;;
46931;SDS011;32670;51.464;11.964;2024-03-23T09:53:39;1.20;;;0.60;;
46931;SDS011;32670;51.464;11.964;2024-03-23T09:56:04;1.13;;;0.60;;
46931;SDS011;32670;51.464;11.964;2024-03-23T09:58:30;0.60;;;0.60;;
46931;SDS011;32670;51.464;11.964;2024-03-23T10:00:57;0.70;;;0.60;;
46931;SDS011;32670;51.464;11.964;2024-03-23T10:03:23;0.70;;;0.60;;
46931;SDS011;32670;51.464;11.964;2024-03-23T10:05:58;0.60;;;0.50;;
46931;SDS011;32670;51.464;11.964;2024-03-23T10:08:25;1.03;;;0.50;;
46931;SDS011;32670;51.464;11.964;2024-03-23T10:10:53;0.57;;;0.57;;
46931;SDS011;32670;51.464;11.964;2024-03-23T10:13:25;0.67;;;0.50;;
46931;SDS011;32670;51.464;11.964;2024-03-23T10:15:55;1.20;;;0.73;;
46931;SDS011;32670;51.464;11.964;2024-03-23T10:18:22;2.10;;;0.77;;
46931;SDS011;32670;51.464;11.964;2024-03-23T10:21:07;0.90;;;0.70;;
46931;SDS011;32670;51.464;11.964;2024-03-23T10:23:34;0.60;;;0.60;;
46931;SDS011;32670;51.464;11.964;2024-03-23T10:26:19;0.90;;;0.80;;
46931;SDS011;32670;51.464;11.964;2024-03-23T10:28:52;0.77;;;0.70;;
46931;SDS011;32670;51.464;11.964;2024-03-23T10:31:19;1.50;;;0.83;;
46931;SDS011;32670;51.464;11.964;2024-03-23T10:33:46;0.93;;;0.77;;
46931;SDS011;32670;51.464;11.964;2024-03-23T10:36:12;1.17;;;0.80;;
46931;SDS011;32670;51.464;11.964;2024-03-23T10:38:42;1.10;;;0.87;;
46931;SDS011;32670;51.464;11.964;2024-03-23T10:41:09;1.20;;;0.80;;
46931;SDS011;32670;51.464;11.964;2024-03-23T10:43:37;0.83;;;0.70;;
46931;SDS011;32670;51.464;11.964;2024-03-23T10:46:04;1.90;;;0.90;;
46931;SDS011;32670;51.464;11.964;2024-03-23T10:48:30;1.10;;;0.80;;
46931;SDS011;32670;51.464;11.964;2024-03-23T10:50:58;0.77;;;0.67;;
46931;SDS011;32670;51.464;11.964;2024-03-23T10:53:27;1.00;;;0.80;;
46931;SDS011;32670;51.464;11.964;2024-03-23T10:55:54;1.50;;;0.77;;
46931;SDS011;32670;51.464;11.964;2024-03-23T10:58:29;1.30;;;0.73;;
46931;SDS011;32670;51.464;11.964;2024-03-23T11:00:57;2.07;;;0.80;;
46931;SDS011;32670;51.464;11.964;2024-03-23T11:03:29;1.70;;;0.90;;
46931;SDS011;32670;51.464;11.964;2024-03-23T11:06:00;1.50;;;1.03;;
46931;SDS011;32670;51.464;11.964;2024-03-23T11:08:38;1.70;;;0.90;;
46931;SDS011;32670;51.464;11.964;2024-03-23T11:11:11;1.33;;;0.80;;
46931;SDS011;32670;51.464;11.964;2024-03-23T11:13:37;2.00;;;0.70;;
46931;SDS011;32670;51.464;11.964;2024-03-23T11:22:04;2.27;;;1.10;;
46931;SDS011;32670;51.464;11.964;2024-03-23T11:24:31;1.77;;;0.90;;
46931;SDS011;32670;51.464;11.964;2024-03-23T11:26:57;1.73;;;0.73;;
46931;SDS011;32670;51.464;11.964;2024-03-23T11:29:26;1.63;;;0.90;;
46931;SDS011;32670;51.464;11.964;2024-03-23T11:31:52;1.57;;;0.93;;
46931;SDS011;32670;51.464;11.964;2024-03-23T11:34:18;1.50;;;0.90;;
46931;SDS011;32670;51.464;11.964;2024-03-23T11:36:45;1.27;;;0.93;;
46931;SDS011;32670;51.464;11.964;2024-03-23T11:39:14;2.73;;;1.10;;
46931;SDS011;32670;51.464;11.964;2024-03-23T11:41:50;0.93;;;0.70;;
46931;SDS011;32670;51.464;11.964;2024-03-23T11:46:46;2.80;;;1.30;;
46931;SDS011;32670;51.464;11.964;2024-03-23T11:49:24;0.97;;;0.60;;
46931;SDS011;32670;51.464;11.964;2024-03-23T11:51:54;1.30;;;0.97;;
46931;SDS011;32670;51.464;11.964;2024-03-23T11:54:21;2.03;;;0.73;;
46931;SDS011;32670;51.464;11.964;2024-03-23T11:56:54;1.60;;;0.90;;
46931;SDS011;32670;51.464;11.964;2024-03-23T11:59:32;1.30;;;0.77;;
46931;SDS011;32670;51.464;11.964;2024-03-23T12:02:05;1.00;;;0.80;;
46931;SDS011;32670;51.464;11.964;2024-03-23T12:04:31;1.07;;;0.70;;
46931;SDS011;32670;51.464;11.964;2024-03-23T12:09:46;1.73;;;0.83;;
46931;SDS011;32670;51.464;11.964;2024-03-23T12:12:26;2.07;;;0.80;;
46931;SDS011;32670;51.464;11.964;2024-03-23T12:15:03;0.83;;;0.80;;
46931;SDS011;32670;51.464;11.964;2024-03-23T12:17:33;0.60;;;0.60;;
46931;SDS011;32670;51.464;11.964;2024-03-23T12:20:00;1.30;;;0.80;;
46931;SDS011;32670;51.464;11.964;2024-03-23T12:22:26;0.80;;;0.60;;
46931;SDS011;32670;51.464;11.964;2024-03-23T12:24:52;2.17;;;0.80;;
46931;SDS011;32670;51.464;11.964;2024-03-23T12:27:17;1.90;;;1.00;;
46931;SDS011;32670;51.464;11.964;2024-03-23T12:29:43;1.97;;;1.00;;
46931;SDS011;32670;51.464;11.964;2024-03-23T12:32:11;1.57;;;1.00;;
46931;SDS011;32670;51.464;11.964;2024-03-23T12:34:37;1.00;;;0.80;;
46931;SDS011;32670;51.464;11.964;2024-03-23T12:37:02;1.53;;;1.00;;
46931;SDS011;32670;51.464;11.964;2024-03-23T12:39:28;1.93;;;1.13;;
46931;SDS011;32670;51.464;11.964;2024-03-23T12:41:53;2.43;;;1.13;;
46931;SDS011;32670;51.464;11.964;2024-03-23T12:44:19;2.13;;;1.10;;
46931;SDS011;32670;51.464;11.964;2024-03-23T12:46:44;2.33;;;1.13;;
46931;SDS011;32670;51.464;11.964;2024-03-23T12:49:10;1.63;;;1.10;;
46931;SDS011;32670;51.464;11.964;2024-03-23T12:51:36;1.90;;;1.20;;
46931;SDS011;32670;51.464;11.964;2024-03-23T12:54:02;1.37;;;1.00;;
46931;SDS011;32670;51.464;11.964;2024-03-23T12:56:28;1.83;;;0.97;;
46931;SDS011;32670;51.464;11.964;2024-03-23T12:58:54;2.20;;;1.00;;
46931;SDS011;32670;51.464;11.964;2024-03-23T13:01:21;1.83;;;0.93;;
46931;SDS011;32670;51.464;11.964;2024-03-23T13:03:50;1.43;;;1.10;;
46931;SDS011;32670;51.464;11.964;2024-03-23T13:06:16;3.43;;;1.10;;
46931;SDS011;32670;51.464;11.964;2024-03-23T13:08:46;2.87;;;1.20;;
46931;SDS011;32670;51.464;11.964;2024-03-23T13:11:12;1.77;;;1.00;;
46931;SDS011;32670;51.464;11.964;2024-03-23T13:13:39;3.00;;;1.33;;
46931;SDS011;32670;51.464;11.964;2024-03-23T13:16:05;1.73;;;1.00;;
46931;SDS011;32670;51.464;11.964;2024-03-23T13:18:31;2.53;;;1.30;;
46931;SDS011;32670;51.464;11.964;2024-03-23T13:20:57;2.03;;;1.40;;
46931;SDS011;32670;51.464;11.964;2024-03-23T13:23:23;2.47;;;1.23;;
46931;SDS011;32670;51.464;11.964;2024-03-23T13:25:51;2.87;;;1.43;;
46931;SDS011;32670;51.464;11.964;2024-03-23T13:28:18;1.73;;;1.00;;
46931;SDS011;32670;51.464;11.964;2024-03-23T13:30:53;3.07;;;1.30;;
46931;SDS011;32670;51.464;11.964;2024-03-23T13:33:20;2.80;;;1.30;;
46931;SDS011;32670;51.464;11.964;2024-03-23T13:35:49;2.97;;;1.20;;
46931;SDS011;32670;51.464;11.964;2024-03-23T13:38:15;1.87;;;1.10;;
46931;SDS011;32670;51.464;11.964;2024-03-23T13:40:48;3.83;;;1.27;;
46931;SDS011;32670;51.464;11.964;2024-03-23T13:43:15;1.63;;;1.10;;
46931;SDS011;32670;51.464;11.964;2024-03-23T13:45:40;2.77;;;1.30;;
46931;SDS011;32670;51.464;11.964;2024-03-23T13:48:06;1.07;;;0.97;;
46931;SDS011;32670;51.464;11.964;2024-03-23T13:50:32;1.83;;;1.07;;
46931;SDS011;32670;51.464;11.964;2024-03-23T13:52:57;1.50;;;1.10;;
46931;SDS011;32670;51.464;11.964;2024-03-23T13:55:22;1.93;;;1.30;;
46931;SDS011;32670;51.464;11.964;2024-03-23T13:57:48;1.67;;;1.07;;
46931;SDS011;32670;51.464;11.964;2024-03-23T14:00:15;4.03;;;1.13;;
46931;SDS011;32670;51.464;11.964;2024-03-23T14:02:43;0.93;;;0.87;;
46931;SDS011;32670;51.464;11.964;2024-03-23T14:05:09;2.30;;;1.27;;
46931;SDS011;32670;51.464;11.964;2024-03-23T14:07:34;1.40;;;0.87;;
46931;SDS011;32670;51.464;11.964;2024-03-23T14:10:02;1.50;;;1.00;;
46931;SDS011;32670;51.464;11.964;2024-03-23T14:12:28;2.37;;;1.07;;
46931;SDS011;32670;51.464;11.964;2024-03-23T14:14:53;2.10;;;1.20;;
46931;SDS011;32670;51.464;11.964;2024-03-23T14:17:20;1.93;;;1.10;;
46931;SDS011;32670;51.464;11.964;2024-03-23T14:19:45;1.63;;;1.10;;
46931;SDS011;32670;51.464;11.964;2024-03-23T14:22:11;1.83;;;1.03;;
46931;SDS011;32670;51.464;11.964;2024-03-23T14:24:36;1.77;;;1.00;;
46931;SDS011;32670;51.464;11.964;2024-03-23T14:27:02;0.93;;;0.80;;
46931;SDS011;32670;51.464;11.964;2024-03-23T14:29:30;1.10;;;1.00;;
46931;SDS011;32670;51.464;11.964;2024-03-23T14:31:56;1.87;;;0.93;;
46931;SDS011;32670;51.464;11.964;2024-03-23T14:34:21;1.53;;;1.00;;
46931;SDS011;32670;51.464;11.964;2024-03-23T14:36:47;1.60;;;1.07;;
46931;SDS011;32670;51.464;11.964;2024-03-23T14:39:12;1.27;;;0.90;;
46931;SDS011;32670;51.464;11.964;2024-03-23T14:41:38;2.30;;;0.90;;
46931;SDS011;32670;51.464;11.964;2024-03-23T14:44:04;1.47;;;0.93;;
46931;SDS011;32670;51.464;11.964;2024-03-23T14:46:29;1.13;;;1.00;;
46931;SDS011;32670;51.464;11.964;2024-03-23T14:48:54;1.40;;;0.90;;
46931;SDS011;32670;51.464;11.964;2024-03-23T14:51:20;1.43;;;1.10;;
46931;SDS011;32670;51.464;11.964;2024-03-23T14:53:47;1.70;;;0.97;;
46931;SDS011;32670;51.464;11.964;2024-03-23T14:56:13;0.97;;;0.80;;
46931;SDS011;32670;51.464;11.964;2024-03-23T14:58:40;1.40;;;0.87;;
46931;SDS011;32670;51.464;11.964;2024-03-23T15:01:07;1.10;;;1.00;;
46931;SDS011;32670;51.464;11.964;2024-03-23T15:03:38;1.27;;;0.93;;
46931;SDS011;32670;51.464;11.964;2024-03-23T15:06:05;2.07;;;0.93;;
46931;SDS011;32670;51.464;11.964;2024-03-23T15:08:31;1.43;;;1.00;;
46931;SDS011;32670;51.464;11.964;2024-03-23T15:11:00;1.97;;;0.80;;
46931;SDS011;32670;51.464;11.964;2024-03-23T15:13:30;0.87;;;0.80;;
46931;SDS011;32670;51.464;11.964;2024-03-23T15:16:04;1.93;;;1.00;;
46931;SDS011;32670;51.464;11.964;2024-03-23T15:18:31;1.10;;;0.87;;
46931;SDS011;32670;51.464;11.964;2024-03-23T15:20:58;1.37;;;0.77;;
46931;SDS011;32670;51.464;11.964;2024-03-23T15:23:27;0.90;;;0.73;;
46931;SDS011;32670;51.464;11.964;2024-03-23T15:25:56;1.33;;;0.97;;
46931;SDS011;32670;51.464;11.964;2024-03-23T15:28:26;1.57;;;0.70;;
46931;SDS011;32670;51.464;11.964;2024-03-23T15:31:02;1.30;;;0.83;;
46931;SDS011;32670;51.464;11.964;2024-03-23T15:33:32;1.33;;;0.83;;
46931;SDS011;32670;51.464;11.964;2024-03-23T15:36:02;1.40;;;1.00;;